»·PEaware :: N732SG KLAX-KSAN

N732SG :: KLAX-KSAN

FLIGHT INFORMATION

Flight Status: Arrived
Operator: Privately registered:
United States
More flights under this callsign
Pilot: Scott G. (88)
Aircraft: CESSNA 172 SKYHAWK
(C172)
More flights by this aircraft type
Origin: KLAX Los Angeles Intl
United States
Destination: KSAN San Diego Intl-Lindbergh
United States
More flights between these airports :: More routes between these airports
Route: +
File this flight plan on PilotEdge
Remarks: CAT 11 attempt
Altitude:
(Current/Filed)
7,500ft
Speed:
(Current/Filed)
110kts
Departed: 25-Mar-17 02:05 PM
Arrived: 25-Mar-17 03:07 PM
Distance/Time
Traveled:
95nm/1:02
Distance/Time
To Go:
Arrived

Flight Plot

Page will automatically refresh every two minutes.


Map Options




Map Legend


Flown Route
Filed Route
Departure Airport
Arrival Airport
Navaid (VOR, NDB)
Fix

Horizontal Profiles

Position Reports

Time Latitude Longitude Heading Altitude Ground
Speed
25-Mar-17 13:56 33.934681 -118.396859 83 107ft 20kts
25-Mar-17 13:57 33.935274 -118.390956 82 102ft 17kts
25-Mar-17 13:58 33.935938 -118.384585 83 99ft 18kts
25-Mar-17 13:59 33.936316 -118.382523 298 96ft 0kts
25-Mar-17 14:00 33.936318 -118.382529 299 96ft 1kts
25-Mar-17 14:01 33.936524 -118.382703 348 96ft 0kts
25-Mar-17 14:02 33.937319 -118.383151 262 96ft 0kts
25-Mar-17 14:03 33.937319 -118.383151 262 96ft 0kts
25-Mar-17 14:04 33.937319 -118.383151 262 96ft 0kts
25-Mar-17 14:05 33.937319 -118.383151 262 96ft 0kts
25-Mar-17 14:06 33.936378 -118.394195 259 529ft 74kts
25-Mar-17 14:07 33.935254 -118.418855 267 1771ft 85kts
25-Mar-17 14:08 33.935439 -118.449030 265 2457ft 105kts
25-Mar-17 14:09 33.909294 -118.461891 192 2953ft 113kts
25-Mar-17 14:10 33.877827 -118.467576 192 3044ft 105kts
25-Mar-17 14:11 33.847559 -118.454517 140 3028ft 115kts
25-Mar-17 14:12 33.828949 -118.432879 140 3028ft 116kts
25-Mar-17 14:13 33.808725 -118.409560 141 3029ft 115kts
25-Mar-17 14:14 33.781623 -118.378820 141 3030ft 116kts
25-Mar-17 14:15 33.763805 -118.358895 141 3030ft 115kts
25-Mar-17 14:16 33.740362 -118.332611 139 3031ft 115kts
25-Mar-17 14:17 33.717130 -118.306040 140 3021ft 116kts
25-Mar-17 14:18 33.690327 -118.271381 131 2755ft 126kts
25-Mar-17 14:19 33.676070 -118.241115 121 2485ft 119kts
25-Mar-17 14:20 33.660967 -118.206645 121 2366ft 115kts
25-Mar-17 14:21 33.650512 -118.164260 96 2235ft 115kts
25-Mar-17 14:22 33.649821 -118.132298 95 2237ft 115kts
25-Mar-17 14:23 33.637989 -118.102840 158 2238ft 104kts
25-Mar-17 14:24 33.613216 -118.084474 148 2237ft 105kts
25-Mar-17 14:25 33.586203 -118.059330 144 2288ft 105kts
25-Mar-17 14:26 33.567514 -118.040765 144 2452ft 104kts
25-Mar-17 14:27 33.545518 -118.018510 144 2649ft 105kts
25-Mar-17 14:28 33.523330 -117.995897 144 2848ft 106kts
25-Mar-17 14:29 33.500886 -117.972977 144 3047ft 107kts
25-Mar-17 14:30 33.474326 -117.945827 144 3280ft 108kts
25-Mar-17 14:31 33.459255 -117.920094 107 2897ft 125kts
25-Mar-17 14:32 33.448309 -117.875171 109 2230ft 126kts
25-Mar-17 14:33 33.443415 -117.855138 109 1932ft 125kts
25-Mar-17 14:34 33.429657 -117.817878 128 1492ft 114kts
25-Mar-17 14:35 33.409141 -117.790967 141 1498ft 108kts
25-Mar-17 14:36 33.386178 -117.767910 145 1498ft 107kts
25-Mar-17 14:37 33.356600 -117.740737 145 1503ft 134kts
25-Mar-17 14:38 33.332104 -117.718741 147 1489ft 114kts
25-Mar-17 14:39 33.310498 -117.699614 147 1497ft 104kts
25-Mar-17 14:40 33.292833 -117.683992 147 1498ft 103kts
25-Mar-17 14:41 33.269657 -117.663493 147 1501ft 106kts
25-Mar-17 14:42 33.245604 -117.642205 147 1500ft 110kts
25-Mar-17 14:43 33.220895 -117.620313 147 1501ft 110kts
25-Mar-17 14:44 33.196168 -117.598420 147 1502ft 110kts
25-Mar-17 14:45 33.171618 -117.576691 147 1504ft 109kts
25-Mar-17 14:46 33.143132 -117.551478 147 1506ft 109kts
25-Mar-17 14:47 33.122790 -117.533543 147 1507ft 109kts
25-Mar-17 14:48 33.098158 -117.511979 147 1507ft 109kts
25-Mar-17 14:49 33.069665 -117.486802 147 1507ft 110kts
25-Mar-17 14:50 33.049209 -117.468691 147 1507ft 110kts
25-Mar-17 14:51 33.024637 -117.446947 147 1508ft 110kts
25-Mar-17 14:52 32.999949 -117.425096 147 1508ft 110kts
25-Mar-17 14:53 32.984598 -117.390040 82 1509ft 117kts
25-Mar-17 14:54 32.989765 -117.358156 80 1508ft 117kts
25-Mar-17 14:55 32.991923 -117.314887 111 1506ft 115kts
25-Mar-17 14:56 32.981228 -117.286641 157 1504ft 110kts
25-Mar-17 14:57 32.952661 -117.273406 162 1507ft 110kts
25-Mar-17 14:58 32.923642 -117.261680 183 1505ft 108kts
25-Mar-17 14:59 32.893575 -117.259119 179 1507ft 109kts
25-Mar-17 15:00 32.863334 -117.256461 179 1507ft 109kts
25-Mar-17 15:01 32.833087 -117.253737 179 1513ft 110kts
25-Mar-17 15:02 32.802792 -117.250950 180 1459ft 113kts
25-Mar-17 15:03 32.775462 -117.230167 140 1055ft 119kts
25-Mar-17 15:04 32.756834 -117.205508 104 1008ft 94kts
25-Mar-17 15:05 32.751164 -117.176651 104 1009ft 79kts
25-Mar-17 15:06 32.742709 -117.157045 194 908ft 70kts
25-Mar-17 15:07 32.727962 -117.164751 269 430ft 58kts
25-Mar-17 15:08 32.731549 -117.181250 283 14ft 37kts
25-Mar-17 15:09 32.732507 -117.181782 31 15ft 0kts
25-Mar-17 15:10 32.732507 -117.181782 31 15ft 0kts
25-Mar-17 15:11 32.732606 -117.181076 95 17ft 5kts
25-Mar-17 15:12 32.732783 -117.178588 90 20ft 11kts
25-Mar-17 15:13 32.732765 -117.178185 232 20ft 0kts
25-Mar-17 15:14 32.732765 -117.178185 232 20ft 0kts

Navigation Log

Ident Type
Flight plan parsing failed, navigation log unavailable